createdAt,value
2019-03-09T00:32:42.961Z,7.60
2019-03-09T00:37:44.718Z,7.00
2019-03-09T00:42:48.355Z,7.10
2019-03-09T00:47:50.139Z,7.57
2019-03-09T00:52:54.468Z,7.37
2019-03-09T00:57:56.197Z,7.13
2019-03-09T01:02:57.789Z,7.90
2019-03-09T01:08:00.661Z,8.53
2019-03-09T01:13:04.618Z,8.10
2019-03-09T01:18:06.986Z,9.23
2019-03-09T01:23:08.600Z,8.53
2019-03-09T01:28:10.290Z,7.83
2019-03-09T01:33:11.920Z,9.83
2019-03-09T01:38:18.025Z,8.13
2019-03-09T01:43:22.463Z,8.60
2019-03-09T01:48:24.079Z,7.37
2019-03-09T01:53:25.803Z,7.97
2019-03-09T01:58:27.423Z,7.83
2019-03-09T02:03:31.688Z,7.43
2019-03-09T02:08:34.545Z,6.17
2019-03-09T02:13:36.225Z,7.57
2019-03-09T02:18:37.911Z,7.40
2019-03-09T02:23:39.614Z,8.07
2019-03-09T02:28:41.225Z,9.83
2019-03-09T02:33:44.924Z,9.63
2019-03-09T02:39:24.142Z,8.50
2019-03-09T02:44:25.768Z,6.57
2019-03-09T02:49:27.818Z,6.53
2019-03-09T02:54:30.609Z,7.10
2019-03-09T02:59:32.395Z,6.57
2019-03-09T03:04:34.116Z,6.53
2019-03-09T03:09:35.710Z,5.87
2019-03-09T03:14:40.566Z,4.93
2019-03-09T03:19:42.163Z,4.63
2019-03-09T03:24:46.909Z,4.60
2019-03-09T03:29:48.538Z,3.63
2019-03-09T03:34:53.367Z,4.20
2019-03-09T03:39:54.946Z,3.27
2019-03-09T03:44:59.150Z,4.63
2019-03-09T03:50:00.730Z,3.63
2019-03-09T03:55:02.322Z,3.90
2019-03-09T04:00:04.880Z,3.47
2019-03-09T04:05:06.491Z,3.33
2019-03-09T04:10:11.576Z,2.67
2019-03-09T04:15:13.170Z,3.00
2019-03-09T04:20:22.240Z,3.37
2019-03-09T04:25:25.625Z,3.03
2019-03-09T04:30:30.776Z,2.90
2019-03-09T04:35:36.433Z,2.90
2019-03-09T04:40:38.062Z,3.20
2019-03-09T04:45:39.838Z,3.20
2019-03-09T04:50:41.427Z,2.80
2019-03-09T04:55:43.941Z,2.67
2019-03-09T05:00:45.559Z,2.83
2019-03-09T05:05:47.414Z,3.03
2019-03-09T05:10:53.678Z,3.00
2019-03-09T05:15:55.293Z,3.17
2019-03-09T05:20:57.046Z,2.63
2019-03-09T05:25:58.735Z,3.10
2019-03-09T05:31:03.779Z,3.30
2019-03-09T05:36:12.763Z,4.07
2019-03-09T05:41:16.425Z,5.43
2019-03-09T05:46:18.035Z,3.00
2019-03-09T05:51:19.711Z,3.43
2019-03-09T05:56:21.398Z,3.37
2019-03-09T06:01:24.150Z,2.83
2019-03-09T06:06:27.064Z,3.17
2019-03-09T06:11:28.804Z,3.60
2019-03-09T06:16:32.120Z,2.97
2019-03-09T06:21:36.555Z,3.13
2019-03-09T06:26:38.283Z,4.03
2019-03-09T06:31:42.997Z,3.80
2019-03-09T06:36:50.963Z,3.10
2019-03-09T06:42:20.708Z,3.63
2019-03-09T06:47:25.263Z,3.27
2019-03-09T06:52:29.433Z,3.57
2019-03-09T06:57:31.153Z,3.30
2019-03-09T07:02:32.762Z,3.67
2019-03-09T07:07:34.477Z,3.63
2019-03-09T07:12:36.138Z,4.13
2019-03-09T07:17:37.826Z,3.77
2019-03-09T07:22:42.135Z,4.80
2019-03-09T07:27:43.997Z,3.90
2019-03-09T07:32:47.925Z,4.13
2019-03-09T07:37:54.601Z,4.37
2019-03-09T07:42:57.583Z,3.93
2019-03-09T07:48:00.557Z,4.17
2019-03-09T07:53:03.712Z,3.73
2019-03-09T07:58:05.594Z,4.63
2019-03-09T08:03:07.278Z,4.67
2019-03-09T08:08:08.898Z,3.67
2019-03-09T08:13:16.616Z,4.40
2019-03-09T08:18:18.388Z,4.07
2019-03-09T08:23:20.031Z,4.13
2019-03-09T08:28:21.668Z,4.77
2019-03-09T08:33:23.370Z,4.47
2019-03-09T08:38:26.749Z,6.17
2019-03-09T08:43:28.500Z,5.70
2019-03-09T08:48:30.298Z,5.07
2019-03-09T08:53:34.790Z,4.77
2019-03-09T08:58:36.569Z,4.40
2019-03-09T09:03:40.049Z,4.20
2019-03-09T09:08:44.237Z,3.90
2019-03-09T09:13:45.968Z,5.10
2019-03-09T09:18:47.612Z,4.73
2019-03-09T09:23:49.508Z,5.43
2019-03-09T09:28:52.790Z,4.67
2019-03-09T09:33:58.472Z,4.63
2019-03-09T09:39:00.498Z,5.30
2019-03-09T09:44:02.398Z,5.40
2019-03-09T09:49:04.245Z,4.73
2019-03-09T09:54:05.874Z,5.30
2019-03-09T09:59:07.617Z,4.83
2019-03-09T10:04:09.451Z,4.07
2019-03-09T10:09:12.906Z,4.80
2019-03-09T10:14:14.616Z,4.87
2019-03-09T10:19:18.573Z,5.50
2019-03-09T10:24:20.217Z,4.50
2019-03-09T10:29:21.854Z,5.10
2019-03-09T10:34:25.602Z,5.00
2019-03-09T10:39:27.122Z,4.87
2019-03-09T10:44:28.791Z,5.00
2019-03-09T10:49:30.466Z,4.80
2019-03-09T10:54:36.015Z,6.10
2019-03-09T10:59:38.552Z,7.30
2019-03-09T11:04:40.358Z,8.50
2019-03-09T11:09:44.161Z,7.83
2019-03-09T11:14:48.755Z,6.80
2019-03-09T11:19:50.474Z,6.60
2019-03-09T11:25:02.712Z,5.70
2019-03-09T11:29:55.656Z,6.00
2019-03-09T11:34:57.364Z,5.83
2019-03-09T11:40:01.187Z,6.10
2019-03-09T11:45:03.845Z,6.23
2019-03-09T11:50:05.869Z,5.80
2019-03-09T11:55:07.537Z,5.40
2019-03-09T12:00:09.840Z,6.57
2019-03-09T12:05:11.684Z,7.03
2019-03-09T12:10:13.304Z,6.87
2019-03-09T12:15:14.991Z,6.73
2019-03-09T12:20:17.777Z,8.33
2019-03-09T12:25:23.459Z,6.97
2019-03-09T12:30:26.114Z,7.90
2019-03-09T12:35:30.231Z,7.80
2019-03-09T12:40:33.733Z,7.03
2019-03-09T12:45:38.017Z,5.73
2019-03-09T12:50:42.602Z,7.20
2019-03-09T12:55:44.624Z,6.03
2019-03-09T13:00:46.399Z,7.37
2019-03-09T13:05:51.407Z,6.60
2019-03-09T13:10:53.067Z,6.70
2019-03-09T13:15:54.988Z,6.47
2019-03-09T13:20:58.564Z,6.13
2019-03-09T13:26:01.422Z,6.40
2019-03-09T13:31:06.202Z,6.70
2019-03-09T13:36:07.943Z,6.77
2019-03-09T13:41:09.787Z,7.10
2019-03-09T13:46:11.401Z,6.33
2019-03-09T13:51:14.240Z,6.37
2019-03-09T13:56:15.894Z,5.07
2019-03-09T14:01:17.815Z,3.87
2019-03-09T14:06:19.414Z,2.60
2019-03-09T14:11:25.562Z,2.80
2019-03-09T14:16:33.310Z,2.13
2019-03-09T14:21:35.548Z,1.73
2019-03-09T14:26:38.399Z,2.10
2019-03-09T14:31:40.621Z,3.37
2019-03-09T14:36:42.577Z,3.77
2019-03-09T14:41:44.290Z,3.40
2019-03-09T14:46:47.454Z,2.90
2019-03-09T14:51:49.207Z,2.80
2019-03-09T14:56:52.612Z,2.67
2019-03-09T15:01:54.361Z,2.00
2019-03-09T15:06:58.008Z,2.27
2019-03-09T15:11:59.742Z,2.50
2019-03-09T15:17:01.394Z,3.43
2019-03-09T15:22:05.210Z,2.60
2019-03-09T15:27:07.075Z,2.80
2019-03-09T15:32:08.798Z,3.43
2019-03-09T15:37:10.462Z,3.20
2019-03-09T15:42:12.190Z,3.20
2019-03-09T15:47:14.498Z,3.93
2019-03-09T15:52:16.178Z,3.60
2019-03-09T15:57:17.804Z,3.63
2019-03-09T16:02:19.398Z,3.27
2019-03-09T16:07:21.046Z,3.77
2019-03-09T16:12:22.741Z,3.43
2019-03-09T16:17:24.352Z,3.10
2019-03-09T16:22:27.805Z,2.87
2019-03-09T16:27:29.487Z,3.10
2019-03-09T16:32:31.647Z,3.83
2019-03-09T16:37:33.356Z,3.23
2019-03-09T16:42:36.077Z,2.73
2019-03-09T16:47:37.781Z,3.00
2019-03-09T16:52:40.474Z,3.50
2019-03-09T16:57:42.317Z,3.20
2019-03-09T17:02:46.225Z,3.07
2019-03-09T17:07:49.403Z,3.93
2019-03-09T17:12:59.769Z,3.10
2019-03-09T17:18:01.364Z,3.47
2019-03-09T17:23:03.015Z,2.97
2019-03-09T17:28:04.619Z,3.07
2019-03-09T17:33:07.654Z,3.63
2019-03-09T17:38:09.473Z,3.23
2019-03-09T17:43:11.357Z,3.40
2019-03-09T17:48:13.379Z,3.90
2019-03-09T17:53:15.910Z,4.17
2019-03-09T17:58:17.504Z,3.97
2019-03-09T18:03:21.784Z,4.47
2019-03-09T18:08:25.386Z,4.33
2019-03-09T18:13:29.348Z,4.20
2019-03-09T18:18:32.797Z,4.50
2019-03-09T18:23:34.430Z,5.07
2019-03-09T18:28:36.826Z,4.60
2019-03-09T18:33:41.513Z,4.13
2019-03-09T18:38:43.470Z,4.10
2019-03-09T18:43:45.321Z,4.20
2019-03-09T18:48:47.578Z,4.30
2019-03-09T18:53:52.262Z,4.83
2019-03-09T18:58:56.142Z,5.73
2019-03-09T19:03:59.648Z,5.00
2019-03-09T19:09:01.619Z,4.30
2019-03-09T19:14:03.445Z,5.23
2019-03-09T19:19:08.271Z,5.20
2019-03-09T19:24:11.075Z,5.40
2019-03-09T19:29:12.722Z,4.50
2019-03-09T19:34:14.325Z,4.77
2019-03-09T19:39:18.988Z,3.87
2019-03-09T19:44:20.595Z,4.80
2019-03-09T19:49:22.316Z,3.57
2019-03-09T19:54:24.049Z,3.30
2019-03-09T19:59:25.819Z,3.60
2019-03-09T20:04:28.814Z,3.20
2019-03-09T20:09:31.857Z,3.90
2019-03-09T20:14:34.018Z,3.30
2019-03-09T20:19:36.545Z,4.20
2019-03-09T20:24:39.630Z,4.20
2019-03-09T20:29:41.215Z,3.80
2019-03-09T20:34:45.477Z,3.83
2019-03-09T20:39:47.102Z,4.30
2019-03-09T20:44:48.694Z,3.80
2019-03-09T20:49:51.469Z,3.80
2019-03-09T20:54:53.689Z,3.90
2019-03-09T20:59:55.342Z,4.60
2019-03-09T21:04:59.993Z,3.63
2019-03-09T21:10:01.693Z,4.37
2019-03-09T21:15:05.503Z,3.73
2019-03-09T21:20:07.803Z,4.67
2019-03-09T21:25:09.859Z,4.73
2019-03-09T21:30:13.304Z,4.00
2019-03-09T21:35:15.044Z,4.30
2019-03-09T21:40:16.655Z,4.30
2019-03-09T21:45:18.434Z,3.80
2019-03-09T21:50:20.021Z,3.93
2019-03-09T21:55:26.890Z,4.07
2019-03-09T22:00:28.614Z,4.00
2019-03-09T22:05:31.327Z,4.57
2019-03-09T22:10:32.926Z,4.10
2019-03-09T22:15:36.593Z,4.20
2019-03-09T22:20:38.192Z,4.00
2019-03-09T22:25:39.832Z,4.23
2019-03-09T22:30:41.429Z,4.10
2019-03-09T22:35:43.126Z,4.57
2019-03-09T22:40:47.480Z,4.07
2019-03-09T22:45:56.500Z,4.90
2019-03-09T22:50:58.260Z,3.97
2019-03-09T22:55:59.938Z,4.50
2019-03-09T23:01:01.817Z,4.37
2019-03-09T23:06:03.424Z,5.33
2019-03-09T23:11:08.315Z,4.17
2019-03-09T23:16:09.958Z,4.50
2019-03-09T23:21:14.086Z,4.30
2019-03-09T23:26:17.511Z,4.57
2019-03-09T23:31:19.171Z,4.70
2019-03-09T23:36:22.809Z,3.97
2019-03-09T23:41:24.671Z,3.77
2019-03-09T23:46:26.429Z,4.70
2019-03-09T23:51:29.409Z,3.80
2019-03-09T23:56:31.124Z,4.63
